TimeEST,TemperatureF,Dew PointF,Humidity,Sea Level PressureIn,VisibilityMPH,Wind Direction,Wind SpeedMPH,Gust SpeedMPH,PrecipitationIn,Events,Conditions,WindDirDegrees,DateUTC
12:54 AM,37.9,25.0,60,30.08,10.0,North,9.2,-,N/A,,Mostly Cloudy,350,2013-03-07 05:54:00
1:54 AM,37.9,25.0,60,30.09,10.0,NNW,6.9,-,N/A,,Mostly Cloudy,330,2013-03-07 06:54:00
2:54 AM,35.1,26.1,70,30.08,10.0,NW,6.9,-,N/A,,Clear,320,2013-03-07 07:54:00
3:54 AM,35.1,27.0,72,30.08,10.0,WNW,9.2,-,N/A,,Mostly Cloudy,300,2013-03-07 08:54:00
4:54 AM,35.1,26.1,70,30.09,10.0,NW,9.2,-,N/A,,Scattered Clouds,320,2013-03-07 09:54:00
5:54 AM,32.0,26.1,79,30.12,10.0,West,8.1,-,N/A,,Mostly Cloudy,280,2013-03-07 10:54:00
6:54 AM,32.0,25.0,75,30.16,10.0,West,3.5,-,N/A,,Scattered Clouds,270,2013-03-07 11:54:00
7:54 AM,36.0,26.1,67,30.18,10.0,WNW,5.8,-,N/A,,Scattered Clouds,290,2013-03-07 12:54:00
8:54 AM,39.0,26.1,60,30.19,10.0,WNW,6.9,-,N/A,,Mostly Cloudy,300,2013-03-07 13:54:00
9:54 AM,42.1,25.0,51,30.19,10.0,NNE,10.4,-,N/A,,Mostly Cloudy,20,2013-03-07 14:54:00
10:54 AM,44.1,25.0,47,30.19,10.0,North,9.2,-,N/A,,Mostly Cloudy,360,2013-03-07 15:54:00
11:54 AM,46.9,25.0,42,30.18,10.0,North,8.1,-,N/A,,Mostly Cloudy,360,2013-03-07 16:54:00
12:54 PM,48.9,25.0,39,30.15,10.0,NW,11.5,-,N/A,,Scattered Clouds,320,2013-03-07 17:54:00
1:54 PM,51.1,25.0,36,30.12,10.0,WNW,16.1,19.6,N/A,,Partly Cloudy,300,2013-03-07 18:54:00
2:54 PM,51.1,25.0,36,30.12,10.0,NW,13.8,21.9,N/A,,Partly Cloudy,320,2013-03-07 19:54:00
3:54 PM,50.0,25.0,38,30.13,10.0,NW,12.7,19.6,N/A,,Partly Cloudy,320,2013-03-07 20:54:00
4:54 PM,46.9,26.1,44,30.15,10.0,NNE,11.5,19.6,N/A,,Partly Cloudy,20,2013-03-07 21:54:00
5:54 PM,43.0,24.1,47,30.19,10.0,North,9.2,-,N/A,,Partly Cloudy,360,2013-03-07 22:54:00
6:54 PM,39.9,23.0,51,30.22,10.0,North,9.2,16.1,N/A,,Clear,360,2013-03-07 23:54:00
7:54 PM,39.0,23.0,53,30.24,10.0,North,8.1,-,N/A,,Clear,350,2013-03-08 00:54:00
8:54 PM,37.9,23.0,55,30.25,10.0,NNW,6.9,-,N/A,,Clear,330,2013-03-08 01:54:00
9:54 PM,36.0,23.0,59,30.25,10.0,North,4.6,-,N/A,,Clear,350,2013-03-08 02:54:00
10:54 PM,32.0,21.9,66,30.26,10.0,WNW,6.9,-,N/A,,Clear,300,2013-03-08 03:54:00
11:54 PM,35.1,21.9,59,30.25,10.0,NW,11.5,-,N/A,,Clear,320,2013-03-08 04:54:00